sensor_id;sensor_type;location;lat;lon;timestamp;temperature;humidity
68867;SHT30;56451;44.804;20.476;2022-08-19T00:01:21;30.44;36.56
68867;SHT30;56451;44.804;20.476;2022-08-19T00:03:47;30.46;36.38
68867;SHT30;56451;44.804;20.476;2022-08-19T00:06:14;30.48;36.22
68867;SHT30;56451;44.804;20.476;2022-08-19T00:08:40;30.48;36.14
68867;SHT30;56451;44.804;20.476;2022-08-19T00:11:06;30.48;36.20
68867;SHT30;56451;44.804;20.476;2022-08-19T00:13:33;30.47;36.25
68867;SHT30;56451;44.804;20.476;2022-08-19T00:15:59;30.47;36.22
68867;SHT30;56451;44.804;20.476;2022-08-19T00:18:26;30.48;36.11
68867;SHT30;56451;44.804;20.476;2022-08-19T00:20:52;30.48;36.07
68867;SHT30;56451;44.804;20.476;2022-08-19T00:23:18;30.48;35.91
68867;SHT30;56451;44.804;20.476;2022-08-19T00:25:44;30.50;35.87
68867;SHT30;56451;44.804;20.476;2022-08-19T00:28:10;30.53;35.83
68867;SHT30;56451;44.804;20.476;2022-08-19T00:30:36;30.50;35.96
68867;SHT30;56451;44.804;20.476;2022-08-19T00:33:03;30.52;36.16
68867;SHT30;56451;44.804;20.476;2022-08-19T00:35:29;30.52;36.11
68867;SHT30;56451;44.804;20.476;2022-08-19T00:37:55;30.52;35.77
68867;SHT30;56451;44.804;20.476;2022-08-19T00:40:21;30.50;35.63
68867;SHT30;56451;44.804;20.476;2022-08-19T00:42:47;30.52;35.64
68867;SHT30;56451;44.804;20.476;2022-08-19T00:45:17;30.53;35.54
68867;SHT30;56451;44.804;20.476;2022-08-19T00:47:44;30.52;36.46
68867;SHT30;56451;44.804;20.476;2022-08-19T00:50:13;30.47;36.88
68867;SHT30;56451;44.804;20.476;2022-08-19T00:52:42;30.41;37.69
68867;SHT30;56451;44.804;20.476;2022-08-19T00:55:15;30.35;38.75
68867;SHT30;56451;44.804;20.476;2022-08-19T00:57:47;30.22;39.57
68867;SHT30;56451;44.804;20.476;2022-08-19T01:00:17;30.20;39.92
68867;SHT30;56451;44.804;20.476;2022-08-19T01:02:44;30.13;40.29
68867;SHT30;56451;44.804;20.476;2022-08-19T01:05:17;30.10;40.40
68867;SHT30;56451;44.804;20.476;2022-08-19T01:07:47;29.96;40.83
68867;SHT30;56451;44.804;20.476;2022-08-19T01:10:20;29.85;40.97
68867;SHT30;56451;44.804;20.476;2022-08-19T01:12:48;29.69;41.17
68867;SHT30;56451;44.804;20.476;2022-08-19T01:15:17;29.58;41.56
68867;SHT30;56451;44.804;20.476;2022-08-19T01:17:44;29.50;41.48
68867;SHT30;56451;44.804;20.476;2022-08-19T01:20:14;29.50;41.59
68867;SHT30;56451;44.804;20.476;2022-08-19T01:22:45;29.46;41.65
68867;SHT30;56451;44.804;20.476;2022-08-19T01:25:13;29.40;41.75
68867;SHT30;56451;44.804;20.476;2022-08-19T01:27:42;29.35;41.96
68867;SHT30;56451;44.804;20.476;2022-08-19T01:30:14;29.38;41.79
68867;SHT30;56451;44.804;20.476;2022-08-19T01:32:40;29.38;41.79
68867;SHT30;56451;44.804;20.476;2022-08-19T01:35:07;29.38;41.70
68867;SHT30;56451;44.804;20.476;2022-08-19T01:37:49;29.40;41.85
68867;SHT30;56451;44.804;20.476;2022-08-19T01:40:16;29.38;41.97
68867;SHT30;56451;44.804;20.476;2022-08-19T01:42:42;29.35;41.99
68867;SHT30;56451;44.804;20.476;2022-08-19T01:45:08;29.40;41.91
68867;SHT30;56451;44.804;20.476;2022-08-19T01:47:36;29.40;42.02
68867;SHT30;56451;44.804;20.476;2022-08-19T01:50:04;29.37;42.20
68867;SHT30;56451;44.804;20.476;2022-08-19T01:52:30;29.40;42.36
68867;SHT30;56451;44.804;20.476;2022-08-19T01:54:56;29.34;42.49
68867;SHT30;56451;44.804;20.476;2022-08-19T01:57:22;29.37;42.53
68867;SHT30;56451;44.804;20.476;2022-08-19T01:59:48;29.38;42.72
68867;SHT30;56451;44.804;20.476;2022-08-19T02:02:13;29.37;42.85
68867;SHT30;56451;44.804;20.476;2022-08-19T02:04:40;29.35;43.04
68867;SHT30;56451;44.804;20.476;2022-08-19T02:07:07;29.37;42.64
68867;SHT30;56451;44.804;20.476;2022-08-19T02:09:33;29.41;41.74
68867;SHT30;56451;44.804;20.476;2022-08-19T02:12:00;29.43;40.98
68867;SHT30;56451;44.804;20.476;2022-08-19T02:14:26;29.46;40.95
68867;SHT30;56451;44.804;20.476;2022-08-19T02:16:52;29.44;40.62
68867;SHT30;56451;44.804;20.476;2022-08-19T02:19:18;29.46;40.53
68867;SHT30;56451;44.804;20.476;2022-08-19T02:21:44;29.47;40.48
68867;SHT30;56451;44.804;20.476;2022-08-19T02:24:09;29.47;40.25
68867;SHT30;56451;44.804;20.476;2022-08-19T02:26:35;29.44;40.09
68867;SHT30;56451;44.804;20.476;2022-08-19T02:29:01;29.44;40.12
68867;SHT30;56451;44.804;20.476;2022-08-19T02:31:27;29.44;39.99
68867;SHT30;56451;44.804;20.476;2022-08-19T02:33:56;29.44;39.79
68867;SHT30;56451;44.804;20.476;2022-08-19T02:36:24;29.40;39.65
68867;SHT30;56451;44.804;20.476;2022-08-19T02:38:50;29.41;39.72
68867;SHT30;56451;44.804;20.476;2022-08-19T02:41:27;29.38;39.57
68867;SHT30;56451;44.804;20.476;2022-08-19T02:43:55;29.38;39.44
68867;SHT30;56451;44.804;20.476;2022-08-19T02:46:25;29.35;39.45
68867;SHT30;56451;44.804;20.476;2022-08-19T02:48:54;29.37;39.51
68867;SHT30;56451;44.804;20.476;2022-08-19T02:51:27;29.37;39.57
68867;SHT30;56451;44.804;20.476;2022-08-19T02:53:54;29.35;39.33
68867;SHT30;56451;44.804;20.476;2022-08-19T02:56:20;29.37;39.44
68867;SHT30;56451;44.804;20.476;2022-08-19T02:58:47;29.38;39.20
68867;SHT30;56451;44.804;20.476;2022-08-19T03:01:26;29.37;39.03
68867;SHT30;56451;44.804;20.476;2022-08-19T03:03:53;29.37;38.99
68867;SHT30;56451;44.804;20.476;2022-08-19T03:06:20;29.37;38.69
68867;SHT30;56451;44.804;20.476;2022-08-19T03:08:47;29.38;38.25
68867;SHT30;56451;44.804;20.476;2022-08-19T03:11:35;29.44;38.10
68867;SHT30;56451;44.804;20.476;2022-08-19T03:14:02;29.46;37.82
68867;SHT30;56451;44.804;20.476;2022-08-19T03:16:30;29.46;37.76
68867;SHT30;56451;44.804;20.476;2022-08-19T03:18:57;29.46;37.58
68867;SHT30;56451;44.804;20.476;2022-08-19T03:21:27;29.50;37.67
68867;SHT30;56451;44.804;20.476;2022-08-19T03:23:55;29.50;37.74
68867;SHT30;56451;44.804;20.476;2022-08-19T03:26:21;29.50;37.64
68867;SHT30;56451;44.804;20.476;2022-08-19T03:28:47;29.53;37.49
68867;SHT30;56451;44.804;20.476;2022-08-19T03:31:19;29.53;37.47
68867;SHT30;56451;44.804;20.476;2022-08-19T03:33:47;29.51;37.53
68867;SHT30;56451;44.804;20.476;2022-08-19T03:36:15;29.54;37.46
68867;SHT30;56451;44.804;20.476;2022-08-19T03:38:45;29.54;37.41
68867;SHT30;56451;44.804;20.476;2022-08-19T03:41:15;29.55;37.56
68867;SHT30;56451;44.804;20.476;2022-08-19T03:43:42;29.54;37.47
68867;SHT30;56451;44.804;20.476;2022-08-19T03:46:13;29.55;37.52
68867;SHT30;56451;44.804;20.476;2022-08-19T03:48:41;29.57;37.60
68867;SHT30;56451;44.804;20.476;2022-08-19T03:51:14;29.55;37.54
68867;SHT30;56451;44.804;20.476;2022-08-19T03:53:40;29.55;37.70
68867;SHT30;56451;44.804;20.476;2022-08-19T03:56:09;29.55;37.77
68867;SHT30;56451;44.804;20.476;2022-08-19T03:58:35;29.57;37.75
68867;SHT30;56451;44.804;20.476;2022-08-19T04:01:10;29.53;37.90
68867;SHT30;56451;44.804;20.476;2022-08-19T04:03:37;29.48;38.05
68867;SHT30;56451;44.804;20.476;2022-08-19T04:06:15;29.48;38.18
68867;SHT30;56451;44.804;20.476;2022-08-19T04:08:44;29.50;38.19
68867;SHT30;56451;44.804;20.476;2022-08-19T04:11:13;29.50;38.32
68867;SHT30;56451;44.804;20.476;2022-08-19T04:13:39;29.47;38.22
68867;SHT30;56451;44.804;20.476;2022-08-19T04:16:05;29.48;38.16
68867;SHT30;56451;44.804;20.476;2022-08-19T04:18:33;29.50;38.13
68867;SHT30;56451;44.804;20.476;2022-08-19T04:20:59;29.50;38.15
68867;SHT30;56451;44.804;20.476;2022-08-19T04:23:26;29.50;38.18
68867;SHT30;56451;44.804;20.476;2022-08-19T04:25:54;29.53;38.13
68867;SHT30;56451;44.804;20.476;2022-08-19T04:28:20;29.51;38.19
68867;SHT30;56451;44.804;20.476;2022-08-19T04:30:52;29.55;38.11
68867;SHT30;56451;44.804;20.476;2022-08-19T04:33:22;29.55;38.12
68867;SHT30;56451;44.804;20.476;2022-08-19T04:35:49;29.54;38.17
68867;SHT30;56451;44.804;20.476;2022-08-19T04:38:20;29.57;38.21
68867;SHT30;56451;44.804;20.476;2022-08-19T04:40:48;29.55;38.35
68867;SHT30;56451;44.804;20.476;2022-08-19T04:43:34;29.59;38.21
68867;SHT30;56451;44.804;20.476;2022-08-19T04:46:05;29.61;38.06
68867;SHT30;56451;44.804;20.476;2022-08-19T04:48:32;29.62;37.93
68867;SHT30;56451;44.804;20.476;2022-08-19T04:50:58;29.67;37.83
68867;SHT30;56451;44.804;20.476;2022-08-19T04:53:29;29.68;37.77
68867;SHT30;56451;44.804;20.476;2022-08-19T04:55:56;29.75;38.13
68867;SHT30;56451;44.804;20.476;2022-08-19T04:58:26;29.78;38.26
68867;SHT30;56451;44.804;20.476;2022-08-19T05:00:53;29.79;38.22
68867;SHT30;56451;44.804;20.476;2022-08-19T05:03:20;29.78;38.32
68867;SHT30;56451;44.804;20.476;2022-08-19T05:05:47;29.82;38.29
68867;SHT30;56451;44.804;20.476;2022-08-19T05:08:18;29.82;38.44
68867;SHT30;56451;44.804;20.476;2022-08-19T05:10:46;29.82;38.13
68867;SHT30;56451;44.804;20.476;2022-08-19T05:13:13;29.86;38.26
68867;SHT30;56451;44.804;20.476;2022-08-19T05:15:40;29.86;38.30
68867;SHT30;56451;44.804;20.476;2022-08-19T05:18:06;29.89;38.19
68867;SHT30;56451;44.804;20.476;2022-08-19T05:20:51;29.89;38.18
68867;SHT30;56451;44.804;20.476;2022-08-19T05:23:35;29.93;38.02
68867;SHT30;56451;44.804;20.476;2022-08-19T05:26:01;29.95;38.02
68867;SHT30;56451;44.804;20.476;2022-08-19T05:28:27;29.93;38.03
68867;SHT30;56451;44.804;20.476;2022-08-19T05:30:53;29.95;38.09
68867;SHT30;56451;44.804;20.476;2022-08-19T05:33:21;29.95;38.05
68867;SHT30;56451;44.804;20.476;2022-08-19T05:35:48;29.96;38.18
68867;SHT30;56451;44.804;20.476;2022-08-19T05:38:16;29.93;38.27
68867;SHT30;56451;44.804;20.476;2022-08-19T05:40:42;29.98;38.28
68867;SHT30;56451;44.804;20.476;2022-08-19T05:43:12;29.96;38.38
68867;SHT30;56451;44.804;20.476;2022-08-19T05:45:42;29.98;38.51
68867;SHT30;56451;44.804;20.476;2022-08-19T05:48:09;29.96;38.55
68867;SHT30;56451;44.804;20.476;2022-08-19T05:50:38;29.96;38.64
68867;SHT30;56451;44.804;20.476;2022-08-19T05:53:04;29.96;38.70
68867;SHT30;56451;44.804;20.476;2022-08-19T05:55:30;29.96;38.79
68867;SHT30;56451;44.804;20.476;2022-08-19T05:57:56;30.01;38.77
68867;SHT30;56451;44.804;20.476;2022-08-19T06:00:22;30.01;38.90
68867;SHT30;56451;44.804;20.476;2022-08-19T06:02:49;30.04;38.87
68867;SHT30;56451;44.804;20.476;2022-08-19T06:05:14;30.08;38.61
68867;SHT30;56451;44.804;20.476;2022-08-19T06:07:40;30.09;38.46
68867;SHT30;56451;44.804;20.476;2022-08-19T06:10:09;30.10;38.52
68867;SHT30;56451;44.804;20.476;2022-08-19T06:12:35;30.16;38.63
68867;SHT30;56451;44.804;20.476;2022-08-19T06:15:09;30.20;38.39
68867;SHT30;56451;44.804;20.476;2022-08-19T06:17:35;30.25;38.55
68867;SHT30;56451;44.804;20.476;2022-08-19T06:20:06;30.27;38.60
68867;SHT30;56451;44.804;20.476;2022-08-19T06:22:52;30.33;38.53
68867;SHT30;56451;44.804;20.476;2022-08-19T06:25:18;30.30;38.57
68867;SHT30;56451;44.804;20.476;2022-08-19T06:27:44;30.36;38.78
68867;SHT30;56451;44.804;20.476;2022-08-19T06:30:11;30.36;38.45
68867;SHT30;56451;44.804;20.476;2022-08-19T06:32:37;30.39;38.65
68867;SHT30;56451;44.804;20.476;2022-08-19T06:35:04;30.39;38.69
68867;SHT30;56451;44.804;20.476;2022-08-19T06:37:30;30.43;38.81
68867;SHT30;56451;44.804;20.476;2022-08-19T06:39:56;30.46;38.44
68867;SHT30;56451;44.804;20.476;2022-08-19T06:42:22;30.48;38.62
68867;SHT30;56451;44.804;20.476;2022-08-19T06:44:49;30.53;38.81
68867;SHT30;56451;44.804;20.476;2022-08-19T06:47:18;30.53;39.01
68867;SHT30;56451;44.804;20.476;2022-08-19T06:49:44;30.57;39.04
68867;SHT30;56451;44.804;20.476;2022-08-19T06:52:11;30.60;39.09
68867;SHT30;56451;44.804;20.476;2022-08-19T06:54:38;30.65;38.93
68867;SHT30;56451;44.804;20.476;2022-08-19T06:57:05;30.71;39.08
68867;SHT30;56451;44.804;20.476;2022-08-19T06:59:33;30.75;39.19
68867;SHT30;56451;44.804;20.476;2022-08-19T07:02:02;30.78;39.21
68867;SHT30;56451;44.804;20.476;2022-08-19T07:04:31;30.85;39.21
68867;SHT30;56451;44.804;20.476;2022-08-19T07:09:25;30.94;39.75
68867;SHT30;56451;44.804;20.476;2022-08-19T07:11:52;30.98;40.01
68867;SHT30;56451;44.804;20.476;2022-08-19T07:14:20;30.98;39.77
68867;SHT30;56451;44.804;20.476;2022-08-19T07:16:48;31.05;39.92
68867;SHT30;56451;44.804;20.476;2022-08-19T07:19:16;31.10;40.29
68867;SHT30;56451;44.804;20.476;2022-08-19T07:21:42;31.11;40.44
68867;SHT30;56451;44.804;20.476;2022-08-19T07:24:08;31.14;40.34
68867;SHT30;56451;44.804;20.476;2022-08-19T07:26:40;31.19;40.27
68867;SHT30;56451;44.804;20.476;2022-08-19T07:29:06;31.16;40.33
68867;SHT30;56451;44.804;20.476;2022-08-19T07:31:32;31.21;40.59
68867;SHT30;56451;44.804;20.476;2022-08-19T07:34:03;31.21;40.37
68867;SHT30;56451;44.804;20.476;2022-08-19T07:36:32;31.26;40.02
68867;SHT30;56451;44.804;20.476;2022-08-19T07:39:00;31.28;40.16
68867;SHT30;56451;44.804;20.476;2022-08-19T07:41:27;31.32;40.28
68867;SHT30;56451;44.804;20.476;2022-08-19T07:43:54;31.35;40.38
68867;SHT30;56451;44.804;20.476;2022-08-19T07:46:20;31.39;40.62
68867;SHT30;56451;44.804;20.476;2022-08-19T07:48:48;31.38;40.67
68867;SHT30;56451;44.804;20.476;2022-08-19T07:51:20;31.49;40.95
68867;SHT30;56451;44.804;20.476;2022-08-19T07:53:48;31.50;41.00
68867;SHT30;56451;44.804;20.476;2022-08-19T07:56:17;31.54;40.82
68867;SHT30;56451;44.804;20.476;2022-08-19T07:58:44;31.60;40.52
68867;SHT30;56451;44.804;20.476;2022-08-19T08:01:13;31.67;40.68
68867;SHT30;56451;44.804;20.476;2022-08-19T08:03:39;31.66;40.84
68867;SHT30;56451;44.804;20.476;2022-08-19T08:06:24;31.72;40.62
68867;SHT30;56451;44.804;20.476;2022-08-19T08:09:10;31.81;40.30
68867;SHT30;56451;44.804;20.476;2022-08-19T08:11:42;31.84;40.30
68867;SHT30;56451;44.804;20.476;2022-08-19T08:14:20;31.87;40.09
68867;SHT30;56451;44.804;20.476;2022-08-19T08:16:47;31.94;40.14
68867;SHT30;56451;44.804;20.476;2022-08-19T08:19:13;32.00;40.11
68867;SHT30;56451;44.804;20.476;2022-08-19T08:21:41;32.08;39.94
68867;SHT30;56451;44.804;20.476;2022-08-19T08:24:07;32.17;39.78
68867;SHT30;56451;44.804;20.476;2022-08-19T08:26:34;32.21;39.45
68867;SHT30;56451;44.804;20.476;2022-08-19T08:28:59;32.28;39.29
68867;SHT30;56451;44.804;20.476;2022-08-19T08:31:25;32.32;39.22
68867;SHT30;56451;44.804;20.476;2022-08-19T08:33:51;32.35;39.37
68867;SHT30;56451;44.804;20.476;2022-08-19T08:36:17;32.44;39.13
68867;SHT30;56451;44.804;20.476;2022-08-19T08:38:44;32.48;39.09
68867;SHT30;56451;44.804;20.476;2022-08-19T08:41:37;32.51;39.31
68867;SHT30;56451;44.804;20.476;2022-08-19T08:44:06;32.58;39.41
68867;SHT30;56451;44.804;20.476;2022-08-19T08:46:39;32.64;39.32
68867;SHT30;56451;44.804;20.476;2022-08-19T08:51:45;32.76;39.05
68867;SHT30;56451;44.804;20.476;2022-08-19T08:54:18;32.82;38.94
68867;SHT30;56451;44.804;20.476;2022-08-19T08:56:45;32.85;38.67
68867;SHT30;56451;44.804;20.476;2022-08-19T09:01:42;32.96;38.23
68867;SHT30;56451;44.804;20.476;2022-08-19T09:04:11;33.02;38.27
68867;SHT30;56451;44.804;20.476;2022-08-19T09:09:42;33.16;38.29
68867;SHT30;56451;44.804;20.476;2022-08-19T09:15:18;33.27;37.95
68867;SHT30;56451;44.804;20.476;2022-08-19T09:17:48;33.37;37.86
68867;SHT30;56451;44.804;20.476;2022-08-19T09:20:18;33.43;37.69
68867;SHT30;56451;44.804;20.476;2022-08-19T09:22:44;33.46;37.76
68867;SHT30;56451;44.804;20.476;2022-08-19T09:25:17;33.53;38.06
68867;SHT30;56451;44.804;20.476;2022-08-19T09:27:43;33.61;37.96
68867;SHT30;56451;44.804;20.476;2022-08-19T09:30:31;33.65;37.60
68867;SHT30;56451;44.804;20.476;2022-08-19T09:32:57;33.68;37.45
68867;SHT30;56451;44.804;20.476;2022-08-19T09:35:25;33.72;37.44
68867;SHT30;56451;44.804;20.476;2022-08-19T09:37:52;33.78;37.20
68867;SHT30;56451;44.804;20.476;2022-08-19T09:40:18;33.82;36.83
68867;SHT30;56451;44.804;20.476;2022-08-19T09:42:45;33.84;36.96
68867;SHT30;56451;44.804;20.476;2022-08-19T09:45:18;33.88;37.12
68867;SHT30;56451;44.804;20.476;2022-08-19T09:47:46;33.91;37.24
68867;SHT30;56451;44.804;20.476;2022-08-19T09:50:12;33.97;37.00
68867;SHT30;56451;44.804;20.476;2022-08-19T09:52:39;33.98;35.85
68867;SHT30;56451;44.804;20.476;2022-08-19T09:55:06;33.91;32.73
68867;SHT30;56451;44.804;20.476;2022-08-19T09:57:32;33.74;31.98
68867;SHT30;56451;44.804;20.476;2022-08-19T09:59:58;33.57;32.64
68867;SHT30;56451;44.804;20.476;2022-08-19T10:02:24;33.41;32.77
68867;SHT30;56451;44.804;20.476;2022-08-19T10:04:51;33.33;34.53
68867;SHT30;56451;44.804;20.476;2022-08-19T10:07:36;33.23;35.31
68867;SHT30;56451;44.804;20.476;2022-08-19T10:10:04;33.20;35.48
68867;SHT30;56451;44.804;20.476;2022-08-19T10:12:31;33.22;35.05
68867;SHT30;56451;44.804;20.476;2022-08-19T10:14:59;33.24;35.39
68867;SHT30;56451;44.804;20.476;2022-08-19T10:17:26;33.19;35.17
68867;SHT30;56451;44.804;20.476;2022-08-19T10:19:52;33.12;35.86
68867;SHT30;56451;44.804;20.476;2022-08-19T10:22:18;33.00;35.01
68867;SHT30;56451;44.804;20.476;2022-08-19T10:24:48;32.93;35.60
68867;SHT30;56451;44.804;20.476;2022-08-19T10:27:14;32.86;35.87
68867;SHT30;56451;44.804;20.476;2022-08-19T10:29:41;32.83;35.66
68867;SHT30;56451;44.804;20.476;2022-08-19T10:32:08;32.80;36.07
68867;SHT30;56451;44.804;20.476;2022-08-19T10:34:36;32.79;36.57
68867;SHT30;56451;44.804;20.476;2022-08-19T10:37:03;32.76;36.04
68867;SHT30;56451;44.804;20.476;2022-08-19T10:39:33;32.79;35.77
68867;SHT30;56451;44.804;20.476;2022-08-19T10:42:03;32.80;35.95
68867;SHT30;56451;44.804;20.476;2022-08-19T10:44:29;32.80;35.64
68867;SHT30;56451;44.804;20.476;2022-08-19T10:46:55;32.86;35.74
68867;SHT30;56451;44.804;20.476;2022-08-19T10:49:21;32.95;36.29
68867;SHT30;56451;44.804;20.476;2022-08-19T10:51:49;33.03;35.56
68867;SHT30;56451;44.804;20.476;2022-08-19T10:54:34;33.10;35.60
68867;SHT30;56451;44.804;20.476;2022-08-19T10:57:18;33.14;35.18
68867;SHT30;56451;44.804;20.476;2022-08-19T10:59:44;33.20;35.27
68867;SHT30;56451;44.804;20.476;2022-08-19T11:02:11;33.26;35.18
68867;SHT30;56451;44.804;20.476;2022-08-19T11:04:38;33.26;34.96
68867;SHT30;56451;44.804;20.476;2022-08-19T11:07:05;33.23;35.16
68867;SHT30;56451;44.804;20.476;2022-08-19T11:09:37;33.26;35.40
68867;SHT30;56451;44.804;20.476;2022-08-19T11:12:04;33.29;35.17
68867;SHT30;56451;44.804;20.476;2022-08-19T11:14:31;33.35;34.98
68867;SHT30;56451;44.804;20.476;2022-08-19T11:16:59;33.34;35.10
68867;SHT30;56451;44.804;20.476;2022-08-19T11:19:25;33.50;34.89
68867;SHT30;56451;44.804;20.476;2022-08-19T11:21:51;33.72;34.61
68867;SHT30;56451;44.804;20.476;2022-08-19T11:24:23;33.95;34.32
68867;SHT30;56451;44.804;20.476;2022-08-19T11:26:50;34.18;33.94
68867;SHT30;56451;44.804;20.476;2022-08-19T11:29:19;34.40;33.52
68867;SHT30;56451;44.804;20.476;2022-08-19T11:31:47;34.60;33.12
68867;SHT30;56451;44.804;20.476;2022-08-19T11:34:17;34.79;32.31
68867;SHT30;56451;44.804;20.476;2022-08-19T11:36:45;34.98;31.91
68867;SHT30;56451;44.804;20.476;2022-08-19T11:39:13;35.15;31.61
68867;SHT30;56451;44.804;20.476;2022-08-19T11:41:39;35.31;31.25
68867;SHT30;56451;44.804;20.476;2022-08-19T11:44:06;35.44;31.05
68867;SHT30;56451;44.804;20.476;2022-08-19T11:46:34;35.56;30.66
68867;SHT30;56451;44.804;20.476;2022-08-19T11:49:01;35.66;30.76
68867;SHT30;56451;44.804;20.476;2022-08-19T11:51:29;35.79;30.46
68867;SHT30;56451;44.804;20.476;2022-08-19T11:53:57;35.86;30.48
68867;SHT30;56451;44.804;20.476;2022-08-19T11:56:24;35.96;30.67
68867;SHT30;56451;44.804;20.476;2022-08-19T11:58:51;36.04;30.30
68867;SHT30;56451;44.804;20.476;2022-08-19T12:01:20;36.10;29.84
68867;SHT30;56451;44.804;20.476;2022-08-19T12:03:48;36.21;30.10
68867;SHT30;56451;44.804;20.476;2022-08-19T12:06:22;36.31;29.65
68867;SHT30;56451;44.804;20.476;2022-08-19T12:09:00;36.38;29.77
68867;SHT30;56451;44.804;20.476;2022-08-19T12:11:27;36.48;29.69
68867;SHT30;56451;44.804;20.476;2022-08-19T12:13:54;36.55;29.01
68867;SHT30;56451;44.804;20.476;2022-08-19T12:16:23;36.61;28.81
68867;SHT30;56451;44.804;20.476;2022-08-19T12:18:50;36.68;28.72
68867;SHT30;56451;44.804;20.476;2022-08-19T12:21:23;36.78;28.64
68867;SHT30;56451;44.804;20.476;2022-08-19T12:23:54;36.81;28.45
68867;SHT30;56451;44.804;20.476;2022-08-19T12:26:21;36.84;28.34
68867;SHT30;56451;44.804;20.476;2022-08-19T12:28:46;36.89;28.17
68867;SHT30;56451;44.804;20.476;2022-08-19T12:31:13;36.91;28.13
68867;SHT30;56451;44.804;20.476;2022-08-19T12:33:41;37.00;28.54
68867;SHT30;56451;44.804;20.476;2022-08-19T12:36:09;37.03;28.33
68867;SHT30;56451;44.804;20.476;2022-08-19T12:38:36;37.12;28.21
68867;SHT30;56451;44.804;20.476;2022-08-19T12:41:03;37.16;27.95
68867;SHT30;56451;44.804;20.476;2022-08-19T12:43:34;37.25;27.49
68867;SHT30;56451;44.804;20.476;2022-08-19T12:46:01;37.27;27.36
68867;SHT30;56451;44.804;20.476;2022-08-19T12:48:27;37.32;27.23
68867;SHT30;56451;44.804;20.476;2022-08-19T12:50:54;37.33;27.19
68867;SHT30;56451;44.804;20.476;2022-08-19T12:53:20;37.39;27.00
68867;SHT30;56451;44.804;20.476;2022-08-19T12:55:46;37.44;26.69
68867;SHT30;56451;44.804;20.476;2022-08-19T12:58:12;37.47;26.77
68867;SHT30;56451;44.804;20.476;2022-08-19T13:00:39;37.57;26.75
68867;SHT30;56451;44.804;20.476;2022-08-19T13:03:05;37.60;26.69
68867;SHT30;56451;44.804;20.476;2022-08-19T13:05:32;37.67;26.54
68867;SHT30;56451;44.804;20.476;2022-08-19T13:07:59;37.72;25.97
68867;SHT30;56451;44.804;20.476;2022-08-19T13:10:32;37.76;25.44
68867;SHT30;56451;44.804;20.476;2022-08-19T13:13:05;37.81;25.51
68867;SHT30;56451;44.804;20.476;2022-08-19T13:15:34;37.83;25.65
68867;SHT30;56451;44.804;20.476;2022-08-19T13:18:00;37.88;25.78
68867;SHT30;56451;44.804;20.476;2022-08-19T13:20:27;37.91;25.48
68867;SHT30;56451;44.804;20.476;2022-08-19T13:22:53;37.97;25.74
68867;SHT30;56451;44.804;20.476;2022-08-19T13:25:20;38.02;25.67
68867;SHT30;56451;44.804;20.476;2022-08-19T13:27:47;38.07;26.08
68867;SHT30;56451;44.804;20.476;2022-08-19T13:30:16;38.12;25.83
68867;SHT30;56451;44.804;20.476;2022-08-19T13:33:01;38.20;25.75
68867;SHT30;56451;44.804;20.476;2022-08-19T13:35:40;38.22;25.63
68867;SHT30;56451;44.804;20.476;2022-08-19T13:38:07;38.27;25.22
68867;SHT30;56451;44.804;20.476;2022-08-19T13:40:33;38.29;25.12
68867;SHT30;56451;44.804;20.476;2022-08-19T13:43:00;38.35;24.81
68867;SHT30;56451;44.804;20.476;2022-08-19T13:45:28;38.44;25.05
68867;SHT30;56451;44.804;20.476;2022-08-19T13:47:55;38.53;25.24
68867;SHT30;56451;44.804;20.476;2022-08-19T13:50:25;38.56;25.05
68867;SHT30;56451;44.804;20.476;2022-08-19T13:52:53;38.58;25.05
68867;SHT30;56451;44.804;20.476;2022-08-19T13:55:19;38.59;24.99
68867;SHT30;56451;44.804;20.476;2022-08-19T13:57:46;38.65;25.20
68867;SHT30;56451;44.804;20.476;2022-08-19T14:00:15;38.70;25.06
68867;SHT30;56451;44.804;20.476;2022-08-19T14:02:45;38.73;24.80
68867;SHT30;56451;44.804;20.476;2022-08-19T14:05:12;38.80;24.66
68867;SHT30;56451;44.804;20.476;2022-08-19T14:07:39;38.84;24.35
68867;SHT30;56451;44.804;20.476;2022-08-19T14:10:07;38.87;23.81
68867;SHT30;56451;44.804;20.476;2022-08-19T14:12:33;38.92;24.21
68867;SHT30;56451;44.804;20.476;2022-08-19T14:15:00;38.95;24.28
68867;SHT30;56451;44.804;20.476;2022-08-19T14:17:26;38.97;24.25
68867;SHT30;56451;44.804;20.476;2022-08-19T14:20:00;39.06;24.67
68867;SHT30;56451;44.804;20.476;2022-08-19T14:22:27;39.09;24.52
68867;SHT30;56451;44.804;20.476;2022-08-19T14:24:53;39.16;24.45
68867;SHT30;56451;44.804;20.476;2022-08-19T14:27:19;39.20;23.76
68867;SHT30;56451;44.804;20.476;2022-08-19T14:29:45;39.24;24.04
68867;SHT30;56451;44.804;20.476;2022-08-19T14:32:11;39.26;23.94
68867;SHT30;56451;44.804;20.476;2022-08-19T14:34:37;39.30;23.84
68867;SHT30;56451;44.804;20.476;2022-08-19T14:37:03;39.33;23.30
68867;SHT30;56451;44.804;20.476;2022-08-19T14:39:29;39.34;23.53
68867;SHT30;56451;44.804;20.476;2022-08-19T14:41:55;39.35;23.82
68867;SHT30;56451;44.804;20.476;2022-08-19T14:44:22;39.35;23.48
68867;SHT30;56451;44.804;20.476;2022-08-19T14:46:48;39.35;23.62
68867;SHT30;56451;44.804;20.476;2022-08-19T14:49:13;39.33;23.26
68867;SHT30;56451;44.804;20.476;2022-08-19T14:51:39;39.26;23.48
68867;SHT30;56451;44.804;20.476;2022-08-19T14:54:05;39.18;23.63
68867;SHT30;56451;44.804;20.476;2022-08-19T14:56:31;39.14;23.66
68867;SHT30;56451;44.804;20.476;2022-08-19T14:58:57;39.02;23.80
68867;SHT30;56451;44.804;20.476;2022-08-19T15:01:26;38.96;23.66
68867;SHT30;56451;44.804;20.476;2022-08-19T15:03:53;38.87;23.96
68867;SHT30;56451;44.804;20.476;2022-08-19T15:06:24;38.79;23.84
68867;SHT30;56451;44.804;20.476;2022-08-19T15:08:50;38.69;23.92
68867;SHT30;56451;44.804;20.476;2022-08-19T15:11:21;38.60;23.88
68867;SHT30;56451;44.804;20.476;2022-08-19T15:13:48;38.51;23.92
68867;SHT30;56451;44.804;20.476;2022-08-19T15:16:15;38.41;23.90
68867;SHT30;56451;44.804;20.476;2022-08-19T15:18:42;38.28;23.93
68867;SHT30;56451;44.804;20.476;2022-08-19T15:21:14;38.17;23.90
68867;SHT30;56451;44.804;20.476;2022-08-19T15:23:41;38.12;23.97
68867;SHT30;56451;44.804;20.476;2022-08-19T15:26:08;38.01;23.96
68867;SHT30;56451;44.804;20.476;2022-08-19T15:28:34;37.93;24.33
68867;SHT30;56451;44.804;20.476;2022-08-19T15:31:00;37.90;25.81
68867;SHT30;56451;44.804;20.476;2022-08-19T15:33:26;37.80;26.75
68867;SHT30;56451;44.804;20.476;2022-08-19T15:35:52;37.72;28.88